Bei Facebook empfehlenBei Twitter postenGoogle plusPinterest

Das Wetter im Erzgebirge am 05.11.2015

Wetter und Klima am 05.11.2015 Holzhau im Erzgebirge (630m ü.NN)
Letzte gemessene Temperatur und Uhrzeit der Messung23:59:00 Uhr4.50 °C
Temperatur (Maximum / Höchstwert) und Uhrzeit der Messung11:44:00 Uhr16.50 °C
Temperatur (Minimum / Tiefstwert) und Uhrzeit der Messung23:14:003.80 °C
Errechneter Absolutwert der Temperaturschwankungen zwischen Tmin und Tmax des Tages12.70 K
Errechnete Tagesmitteltemperatur9.17813 °C
Gesamt - Niederschlag des Tages (in flüssiger Form)0.52 Liter / m²
Luftdruck (Maximum / Höchstwert) und Zeitpunkt der Messung11:14:00 Uhr1020.20 hPa
Luftdruck (Minimum / Tiefstwert) und Zeitpunkt der Messung03:59:00 Uhr1018.10 hPa
Errechneter Absolutwert der Luftdruckschwankungen des Tages2.10 hPa
Höchste gemessene Windgeschwindigkeit und Uhrzeit der Messung22:59:00 Uhr5.76 km/h
Errechnete Windhäufigkeit in Relation zu den Messwerten des Tages9.37500 %
Niedrigste Windkühle (Windchill) und Zeitpunkt der Messung22:59:00 Uhr2.50 °C
Taupunkt (Maximum / Höchstwert) und Uhrzeit der Messung11:44:00 Uhr13.40 °C
Taupunkt (Minimum / Tiefstwert) und Uhrzeit der Messung23:14:002.60 °C
Anzahl der automatisch eingelesenen Messwerte 96

Detaillierte Wetter- und Klima- Messwerte für den 05.11.2015 in Holzhau im Erzgebirge (630m ü.NN)
ZeitTemperaturLuftdruckRel. LuftfeuchteWindWindrichtungWindchillTaupunktNiederschlag l/m²
23:59:004.50 °C1019.00 hPa92.00 %3.30 °C0.52
23:44:004.20 °C1019.10 hPa92.00 %1.44 km/hOSO4.20 °C3.00 °C0.52
23:29:004.10 °C1019.00 hPa92.00 %2.90 °C0.52
23:14:003.80 °C1019.00 hPa92.00 %2.60 °C0.52
22:59:003.90 °C1019.10 hPa92.00 %5.76 km/hOSO2.50 °C2.70 °C0.52
22:44:003.90 °C1019.30 hPa91.00 %2.60 °C0.52
22:29:004.10 °C1019.20 hPa91.00 %2.80 °C0.52
22:14:004.30 °C1019.20 hPa91.00 %2.52 km/hOSO4.30 °C3.00 °C0.52
21:59:004.40 °C1018.90 hPa91.00 %3.10 °C0.52
21:44:004.40 °C1019.20 hPa91.00 %3.10 °C0.52
21:29:004.50 °C1019.30 hPa90.00 %3.00 °C0.52
21:14:004.80 °C1019.20 hPa90.00 %3.30 °C0.52
20:59:005.00 °C1019.10 hPa90.00 %3.50 °C0.52
20:44:005.30 °C1019.30 hPa90.00 %1.80 km/hSO5.30 °C3.80 °C0.52
20:29:005.50 °C1019.40 hPa90.00 %3.24 km/hONO5.50 °C4.00 °C0.52
20:14:005.80 °C1019.30 hPa89.00 %4.10 °C0.52
19:59:005.80 °C1019.40 hPa89.00 %4.10 °C0.52
19:44:006.10 °C1019.50 hPa89.00 %4.40 °C0.52
19:29:006.30 °C1019.50 hPa88.00 %4.50 °C0.52
19:14:006.40 °C1019.40 hPa87.00 %2.52 km/hOSO6.40 °C4.40 °C0.52
18:59:006.80 °C1019.40 hPa87.00 %4.80 °C0.52
18:44:007.00 °C1019.40 hPa87.00 %5.00 °C0.52
18:29:007.20 °C1019.30 hPa86.00 %5.00 °C0.52
18:14:007.50 °C1019.30 hPa85.00 %1.44 km/hSO7.50 °C5.10 °C0.52
17:59:007.90 °C1019.40 hPa84.00 %5.40 °C0.52
17:44:008.60 °C1019.40 hPa84.00 %6.10 °C0.52
17:29:009.20 °C1019.30 hPa83.00 %6.50 °C0.52
17:14:009.60 °C1019.30 hPa81.00 %6.50 °C0.52
16:59:0010.50 °C1019.20 hPa79.00 %7.00 °C0.52
16:44:0011.60 °C1019.40 hPa78.00 %7.90 °C0.52
16:29:0012.90 °C1019.40 hPa76.00 %8.80 °C0.52
16:14:0014.00 °C1019.30 hPa75.00 %9.60 °C0.52
15:59:0014.80 °C1019.30 hPa74.00 %10.20 °C0.52
15:44:0015.20 °C1019.30 hPa73.00 %10.40 °C0.52
15:29:0015.20 °C1019.30 hPa73.00 %10.40 °C0.52
15:14:0015.50 °C1019.40 hPa73.00 %10.70 °C0.52
14:59:0015.50 °C1019.50 hPa73.00 %10.70 °C0.52
14:44:0015.60 °C1019.50 hPa72.00 %10.60 °C0.52
14:29:0015.90 °C1019.30 hPa72.00 %10.90 °C0.52
14:14:0016.40 °C1019.50 hPa72.00 %11.30 °C0.52
13:59:0016.30 °C1019.40 hPa74.00 %11.70 °C0.52
13:44:0015.60 °C1019.30 hPa75.00 %11.20 °C0.52
13:29:0015.30 °C1019.50 hPa74.00 %10.70 °C0.52
13:14:0015.20 °C1019.50 hPa74.00 %3.60 km/hSSW15.20 °C10.60 °C0.52
12:59:0015.60 °C1019.70 hPa73.00 %10.80 °C0.52
12:44:0016.40 °C1019.70 hPa74.00 %11.80 °C0.52
12:29:0016.30 °C1019.70 hPa76.00 %3.60 km/hSW16.30 °C12.10 °C0.52
12:14:0015.80 °C1019.80 hPa77.00 %11.80 °C0.52
11:59:0016.10 °C1020.00 hPa79.00 %12.50 °C0.52
11:44:0016.50 °C1020.10 hPa82.00 %13.40 °C0.52
11:29:0015.60 °C1020.00 hPa87.00 %13.40 °C0.52
11:14:0013.70 °C1020.20 hPa88.00 %11.80 °C0.52
10:59:0013.30 °C1020.10 hPa88.00 %11.40 °C0.52
10:44:0013.80 °C1020.20 hPa89.00 %12.00 °C0.52
10:29:0014.30 °C1019.90 hPa91.00 %12.90 °C0.52
10:14:0014.10 °C1019.50 hPa94.00 %13.10 °C0.52
09:59:0012.90 °C1019.60 hPa95.00 %12.10 °C0.52
09:44:0011.30 °C1019.30 hPa94.00 %10.40 °C0.52
09:29:0010.20 °C1019.40 hPa94.00 %9.30 °C0.52
09:14:009.10 °C1019.00 hPa94.00 %8.20 °C0.52
08:59:007.90 °C1018.90 hPa94.00 %7.00 °C0.52
08:44:007.30 °C1018.80 hPa93.00 %6.20 °C0.52
08:29:007.00 °C1018.80 hPa93.00 %5.90 °C0.52
08:14:006.80 °C1018.80 hPa93.00 %5.70 °C0.52
07:59:006.70 °C1018.80 hPa93.00 %5.70 °C0.52
07:44:006.80 °C1018.60 hPa93.00 %5.70 °C0.52
07:29:006.60 °C1018.60 hPa93.00 %5.60 °C0.52
07:14:006.60 °C1018.50 hPa93.00 %5.60 °C0.52
06:59:006.80 °C1018.40 hPa92.00 %5.60 °C0.52
06:44:006.90 °C1018.30 hPa92.00 %5.70 °C0.52
06:29:007.20 °C1018.40 hPa92.00 %6.00 °C0.52
06:14:007.30 °C1018.30 hPa92.00 %6.10 °C0.52
05:59:007.20 °C1018.30 hPa92.00 %6.00 °C0.52
05:44:007.30 °C1018.40 hPa92.00 %6.10 °C0.52
05:29:007.30 °C1018.40 hPa92.00 %6.10 °C0.52
05:14:007.40 °C1018.30 hPa92.00 %6.20 °C0.52
04:59:007.60 °C1018.20 hPa92.00 %6.40 °C0.52
04:44:007.60 °C1018.30 hPa92.00 %6.40 °C0.52
04:29:007.70 °C1018.30 hPa92.00 %6.50 °C0.52
04:14:007.60 °C1018.30 hPa92.00 %6.40 °C 
03:59:007.60 °C1018.10 hPa92.00 %6.40 °C 
03:44:007.60 °C1018.20 hPa92.00 %6.40 °C 
03:29:007.60 °C1018.30 hPa91.00 %6.20 °C 
03:14:007.60 °C1018.30 hPa91.00 %6.20 °C 
02:59:007.60 °C1018.20 hPa91.00 %6.20 °C 
02:44:007.60 °C1018.40 hPa91.00 %6.20 °C 
02:29:007.60 °C1018.40 hPa91.00 %6.20 °C 
02:14:007.40 °C1018.30 hPa91.00 %6.00 °C 
01:59:007.20 °C1018.40 hPa91.00 %5.80 °C 
01:44:006.90 °C1018.20 hPa90.00 %5.40 °C 
01:29:006.90 °C1018.30 hPa90.00 %5.40 °C 
01:14:006.90 °C1018.40 hPa90.00 %5.40 °C 
00:59:006.90 °C1018.20 hPa90.00 %5.40 °C 
00:44:006.90 °C1018.20 hPa90.00 %5.40 °C 
00:29:006.90 °C1018.30 hPa90.00 %5.40 °C 
00:14:006.90 °C1018.20 hPa90.00 %5.40 °C 

Permanenter Link zu dieser Seite: Wetter im Erzgebirge am 05.11.2015
Performance-Info: Die Erstellung der Seite / Statistik(en) / Tabelle(n) erforderte 5 Datenbankserver-Abfrage(n) und dauerte 122 Millisekunden. (Dieser Messwert ist von der Gesamt-Auslastung des Servers abhängig.)
Erzgebirge - Wetter | Erzgebirge - Wetter (Mobilgeräte) | Komplette Klimadatenbank